createdAt,value
2019-02-19T00:00:35.341Z,2.66
2019-02-19T00:03:03.926Z,2.71
2019-02-19T00:05:32.484Z,2.93
2019-02-19T00:08:01.081Z,2.98
2019-02-19T00:10:29.633Z,3.37
2019-02-19T00:12:58.221Z,3.30
2019-02-19T00:15:26.802Z,3.34
2019-02-19T00:17:55.382Z,3.25
2019-02-19T00:20:23.970Z,3.43
2019-02-19T00:22:52.524Z,3.49
2019-02-19T00:25:21.167Z,3.54
2019-02-19T00:27:49.765Z,3.58
2019-02-19T00:30:18.350Z,4.81
2019-02-19T00:32:46.945Z,4.45
2019-02-19T00:35:15.530Z,4.65
2019-02-19T00:37:44.090Z,4.76
2019-02-19T00:40:12.666Z,5.92
2019-02-19T00:42:41.238Z,7.05
2019-02-19T00:45:16.455Z,8.53
2019-02-19T00:47:40.130Z,9.32
2019-02-19T00:50:08.802Z,9.14
2019-02-19T00:52:37.352Z,9.43
2019-02-19T00:55:06.024Z,9.61
2019-02-19T00:57:34.611Z,9.37
2019-02-19T01:00:03.150Z,9.52
2019-02-19T01:02:31.699Z,9.66
2019-02-19T01:05:00.360Z,9.84
2019-02-19T01:07:28.967Z,9.76
2019-02-19T01:09:57.516Z,9.77
2019-02-19T01:12:26.086Z,9.77
2019-02-19T01:14:54.666Z,9.80
2019-02-19T01:17:23.219Z,9.77
2019-02-19T01:19:51.775Z,9.67
2019-02-19T01:22:20.351Z,9.57
2019-02-19T01:24:48.928Z,9.28
2019-02-19T01:27:17.549Z,9.16
2019-02-19T01:29:46.096Z,8.99
2019-02-19T01:32:14.645Z,9.11
2019-02-19T01:34:43.224Z,8.89
2019-02-19T01:37:11.814Z,8.98
2019-02-19T01:39:40.359Z,8.95
2019-02-19T01:42:08.910Z,9.28
2019-02-19T01:44:37.489Z,9.45
2019-02-19T01:47:06.034Z,9.47
2019-02-19T01:49:34.634Z,9.39
2019-02-19T01:52:03.194Z,9.50
2019-02-19T01:54:31.745Z,9.29
2019-02-19T01:57:00.655Z,9.28
2019-02-19T01:59:29.239Z,9.55
2019-02-19T02:01:57.790Z,9.32
2019-02-19T02:04:26.336Z,9.42
2019-02-19T02:06:54.921Z,9.50
2019-02-19T02:09:23.494Z,9.18
2019-02-19T02:11:53.306Z,9.42
2019-02-19T02:14:23.366Z,9.28
2019-02-19T02:16:52.774Z,9.36
2019-02-19T02:19:22.151Z,9.49
2019-02-19T02:21:51.533Z,9.44
2019-02-19T02:24:20.122Z,9.25
2019-02-19T02:26:48.724Z,9.05
2019-02-19T02:29:17.747Z,8.96
2019-02-19T02:31:46.290Z,9.01
2019-02-19T02:34:14.826Z,8.86
2019-02-19T02:36:43.743Z,8.61
2019-02-19T02:39:12.286Z,8.59
2019-02-19T02:41:40.876Z,8.72
2019-02-19T02:44:09.414Z,8.74
2019-02-19T02:46:37.957Z,8.72
2019-02-19T02:49:06.536Z,8.51
2019-02-19T02:51:35.085Z,8.81
2019-02-19T02:54:03.671Z,8.83
2019-02-19T02:56:32.231Z,8.87
2019-02-19T02:59:01.059Z,8.79
2019-02-19T03:01:29.629Z,8.85
2019-02-19T03:03:58.221Z,8.84
2019-02-19T03:06:36.139Z,8.81
2019-02-19T03:09:05.303Z,8.79
2019-02-19T03:11:33.872Z,8.88
2019-02-19T03:14:02.483Z,8.66
2019-02-19T03:16:31.015Z,8.91
2019-02-19T03:18:59.874Z,8.96
2019-02-19T03:21:28.473Z,8.99
2019-02-19T03:23:57.051Z,9.14
2019-02-19T03:26:25.623Z,9.13
2019-02-19T03:28:54.220Z,9.21
2019-02-19T03:31:22.784Z,9.30
2019-02-19T03:33:51.329Z,9.25
2019-02-19T03:36:19.918Z,9.33
2019-02-19T03:38:48.477Z,9.38
2019-02-19T03:41:17.019Z,9.22
2019-02-19T03:43:45.597Z,9.11
2019-02-19T03:46:14.210Z,8.94
2019-02-19T03:48:42.772Z,9.03
2019-02-19T03:51:11.332Z,8.97
2019-02-19T03:53:39.920Z,8.87
2019-02-19T03:56:08.463Z,8.74
2019-02-19T03:58:37.023Z,8.69
2019-02-19T04:01:05.613Z,8.65
2019-02-19T04:03:34.169Z,8.75
2019-02-19T04:06:02.723Z,8.78
2019-02-19T04:08:31.347Z,8.70
2019-02-19T04:10:59.904Z,8.82
2019-02-19T04:13:28.499Z,8.92
2019-02-19T04:15:57.415Z,8.84
2019-02-19T04:18:25.965Z,8.96
2019-02-19T04:20:54.551Z,9.01
2019-02-19T04:23:23.389Z,8.99
2019-02-19T04:25:52.007Z,9.11
2019-02-19T04:28:20.918Z,9.17
2019-02-19T04:30:49.469Z,9.15
2019-02-19T04:33:18.021Z,9.08
2019-02-19T04:35:46.604Z,9.08
2019-02-19T04:38:15.153Z,9.07
2019-02-19T04:40:43.732Z,9.12
2019-02-19T04:43:12.281Z,9.09
2019-02-19T04:45:40.831Z,9.07
2019-02-19T04:48:09.417Z,9.04
2019-02-19T04:50:37.973Z,9.07
2019-02-19T04:53:06.531Z,9.07
2019-02-19T04:55:35.691Z,9.05
2019-02-19T04:58:04.305Z,9.05
2019-02-19T05:00:32.873Z,9.06
2019-02-19T05:03:01.457Z,9.06
2019-02-19T05:05:30.079Z,9.08
2019-02-19T05:07:58.629Z,8.99
2019-02-19T05:10:27.184Z,9.03
2019-02-19T05:12:55.818Z,8.99
2019-02-19T05:15:24.388Z,8.94
2019-02-19T05:17:52.932Z,8.89
2019-02-19T05:20:21.486Z,8.85
2019-02-19T05:22:50.081Z,8.80
2019-02-19T05:25:18.649Z,8.78
2019-02-19T05:27:47.225Z,8.68
2019-02-19T05:30:15.833Z,8.70
2019-02-19T05:32:44.422Z,8.67
2019-02-19T05:35:12.983Z,8.64
2019-02-19T05:37:41.584Z,8.62
2019-02-19T05:40:10.163Z,8.55
2019-02-19T05:42:38.724Z,8.53
2019-02-19T05:45:07.650Z,8.50
2019-02-19T05:47:36.251Z,8.41
2019-02-19T05:50:05.343Z,8.35
2019-02-19T05:52:33.890Z,8.28
2019-02-19T05:55:02.467Z,8.19
2019-02-19T05:57:31.052Z,8.10
2019-02-19T05:59:59.677Z,8.10
2019-02-19T06:02:28.314Z,8.04
2019-02-19T06:04:56.866Z,7.99
2019-02-19T06:07:25.470Z,7.95
2019-02-19T06:09:54.019Z,7.89
2019-02-19T06:12:22.628Z,7.91
2019-02-19T06:14:51.514Z,7.86
2019-02-19T06:17:20.072Z,7.83
2019-02-19T06:19:48.650Z,7.82
2019-02-19T06:22:17.243Z,7.76
2019-02-19T06:24:46.118Z,7.76
2019-02-19T06:27:14.715Z,7.73
2019-02-19T06:29:43.268Z,7.62
2019-02-19T06:32:11.845Z,7.56
2019-02-19T06:34:40.407Z,7.51
2019-02-19T06:37:09.000Z,7.56
2019-02-19T06:39:37.579Z,7.60
2019-02-19T06:42:06.130Z,7.64
2019-02-19T06:44:34.740Z,7.61
2019-02-19T06:47:06.858Z,7.64
2019-02-19T06:49:33.613Z,7.65
2019-02-19T06:52:02.189Z,7.66
2019-02-19T06:54:30.746Z,7.70
2019-02-19T06:56:59.355Z,7.80
2019-02-19T06:59:27.917Z,7.83
2019-02-19T07:02:17.581Z,7.81
2019-02-19T07:04:52.721Z,7.88
2019-02-19T07:07:21.322Z,7.88
2019-02-19T07:09:49.889Z,7.90
2019-02-19T07:12:27.561Z,7.93
2019-02-19T07:15:05.087Z,7.90
2019-02-19T07:17:33.654Z,7.91
2019-02-19T07:20:02.228Z,7.94
2019-02-19T07:22:30.832Z,7.95
2019-02-19T07:24:59.451Z,7.99
2019-02-19T07:27:28.397Z,8.00
2019-02-19T07:29:56.989Z,8.05
2019-02-19T07:32:25.595Z,8.04
2019-02-19T07:34:54.154Z,8.06
2019-02-19T07:37:22.714Z,8.08
2019-02-19T07:39:51.290Z,8.06
2019-02-19T07:42:19.866Z,8.09
2019-02-19T07:44:48.444Z,8.05
2019-02-19T07:47:24.441Z,8.06
2019-02-19T07:49:47.314Z,8.09
2019-02-19T07:52:15.875Z,8.10
2019-02-19T07:54:44.441Z,8.15
2019-02-19T07:57:13.053Z,8.14
2019-02-19T07:59:41.623Z,8.19
2019-02-19T08:02:10.176Z,8.20
2019-02-19T08:04:38.772Z,8.18
2019-02-19T08:07:07.329Z,8.19
2019-02-19T08:09:35.882Z,8.21
2019-02-19T08:12:04.454Z,8.19
2019-02-19T08:14:33.036Z,8.24
2019-02-19T08:17:01.669Z,8.13
2019-02-19T08:19:31.435Z,8.14
2019-02-19T08:21:59.986Z,8.15
2019-02-19T08:24:28.560Z,8.25
2019-02-19T08:26:57.557Z,8.32
2019-02-19T08:29:26.142Z,8.40
2019-02-19T08:31:54.752Z,8.47
2019-02-19T08:34:23.296Z,8.57
2019-02-19T08:36:51.951Z,8.52
2019-02-19T08:39:20.538Z,8.38
2019-02-19T08:41:49.089Z,8.40
2019-02-19T08:44:17.664Z,8.38
2019-02-19T08:46:46.210Z,8.35
2019-02-19T08:49:14.795Z,8.41
2019-02-19T08:51:43.361Z,8.40
2019-02-19T08:54:11.922Z,8.46
2019-02-19T08:56:40.513Z,8.60
2019-02-19T08:59:09.451Z,8.65
2019-02-19T09:01:38.020Z,8.57
2019-02-19T09:04:06.575Z,8.83
2019-02-19T09:06:35.184Z,8.90
2019-02-19T09:09:04.962Z,8.80
2019-02-19T09:11:33.515Z,8.82
2019-02-19T09:14:02.113Z,8.96
2019-02-19T09:16:30.661Z,8.75
2019-02-19T09:18:59.240Z,8.80
2019-02-19T09:21:27.825Z,8.72
2019-02-19T09:23:58.388Z,8.79
2019-02-19T09:26:26.709Z,8.91
2019-02-19T09:28:55.330Z,8.86
2019-02-19T09:31:23.908Z,9.07
2019-02-19T09:33:52.491Z,8.99
2019-02-19T09:36:21.053Z,9.09
2019-02-19T09:38:49.633Z,9.36
2019-02-19T09:41:18.534Z,9.46
2019-02-19T09:43:47.124Z,9.30
2019-02-19T09:46:15.715Z,9.25
2019-02-19T09:48:44.282Z,9.45
2019-02-19T09:51:16.231Z,9.44
2019-02-19T09:53:44.854Z,9.44
2019-02-19T09:56:13.409Z,9.39
2019-02-19T09:58:42.002Z,9.51
2019-02-19T10:01:10.871Z,9.23
2019-02-19T10:03:39.823Z,9.01
2019-02-19T10:06:22.032Z,8.86
2019-02-19T10:08:50.949Z,8.65
2019-02-19T10:11:19.554Z,8.51
2019-02-19T10:13:48.160Z,8.55
2019-02-19T10:16:16.745Z,8.59
2019-02-19T10:18:45.317Z,8.97
2019-02-19T10:21:13.950Z,9.22
2019-02-19T10:23:42.518Z,9.18
2019-02-19T10:26:11.077Z,9.47
2019-02-19T10:28:39.652Z,9.60
2019-02-19T10:31:08.261Z,9.70
2019-02-19T10:33:36.828Z,9.62
2019-02-19T10:36:05.438Z,9.36
2019-02-19T10:38:34.005Z,9.28
2019-02-19T10:41:02.591Z,9.12
2019-02-19T10:43:31.169Z,9.03
2019-02-19T10:45:59.756Z,9.66
2019-02-19T10:48:28.346Z,10.04
2019-02-19T10:50:56.939Z,9.82
2019-02-19T10:53:25.498Z,9.70
2019-02-19T10:55:54.092Z,9.37
2019-02-19T10:58:23.342Z,9.31
2019-02-19T11:00:52.031Z,9.12
2019-02-19T11:03:20.599Z,9.30
2019-02-19T11:05:49.185Z,9.77
2019-02-19T11:08:17.758Z,9.72
2019-02-19T11:10:46.362Z,9.37
2019-02-19T11:13:14.961Z,9.46
2019-02-19T11:15:43.523Z,9.42
2019-02-19T11:18:12.151Z,9.34
2019-02-19T11:20:40.750Z,9.25
2019-02-19T11:23:09.707Z,9.54
2019-02-19T11:25:38.309Z,9.66
2019-02-19T11:28:06.918Z,9.58
2019-02-19T11:30:35.678Z,9.73
2019-02-19T11:33:04.226Z,9.47
2019-02-19T11:38:08.142Z,10.20
2019-02-19T11:40:38.016Z,9.93
2019-02-19T11:43:07.842Z,9.93
2019-02-19T11:45:36.799Z,9.81
2019-02-19T11:48:05.404Z,9.99
2019-02-19T11:50:34.459Z,9.76
2019-02-19T11:53:03.036Z,9.76
2019-02-19T11:55:31.619Z,9.74
2019-02-19T11:58:01.525Z,9.81
2019-02-19T12:00:34.983Z,9.67
2019-02-19T12:03:03.572Z,9.70
2019-02-19T12:05:34.566Z,9.75
2019-02-19T12:08:03.166Z,10.06
2019-02-19T12:10:31.732Z,10.10
2019-02-19T12:13:00.633Z,10.70
2019-02-19T12:15:35.196Z,10.26
2019-02-19T12:17:59.878Z,10.10
2019-02-19T12:20:30.783Z,10.41
2019-02-19T12:23:00.040Z,9.99
2019-02-19T12:25:28.595Z,9.92
2019-02-19T12:27:57.177Z,10.39
2019-02-19T12:30:26.103Z,10.80
2019-02-19T12:32:54.669Z,11.74
2019-02-19T12:35:23.279Z,11.68
2019-02-19T12:37:52.168Z,11.41
2019-02-19T12:40:21.382Z,11.77
2019-02-19T12:42:50.064Z,11.90
2019-02-19T12:45:18.623Z,11.47
2019-02-19T12:47:47.191Z,10.87
2019-02-19T12:50:17.173Z,10.85
2019-02-19T12:52:46.039Z,10.50
2019-02-19T12:55:14.594Z,10.19
2019-02-19T12:57:43.167Z,10.07
2019-02-19T13:00:13.829Z,10.21
2019-02-19T13:02:43.995Z,10.27
2019-02-19T13:05:13.054Z,10.40
2019-02-19T13:07:41.667Z,10.47
2019-02-19T13:10:10.392Z,10.48
2019-02-19T13:12:40.244Z,10.30
2019-02-19T13:15:13.711Z,10.29
2019-02-19T13:17:42.982Z,10.35
2019-02-19T13:20:13.111Z,10.35
2019-02-19T13:22:42.797Z,10.26
2019-02-19T13:25:13.600Z,10.13
2019-02-19T13:27:43.205Z,10.27
2019-02-19T13:30:14.415Z,10.27
2019-02-19T13:32:43.594Z,10.21
2019-02-19T13:35:13.883Z,10.44
2019-02-19T13:37:42.532Z,11.08
2019-02-19T13:40:12.000Z,12.04
2019-02-19T13:42:41.092Z,12.93
2019-02-19T13:45:11.521Z,12.52
2019-02-19T13:47:40.486Z,12.26
2019-02-19T13:50:11.967Z,11.53
2019-02-19T13:52:59.558Z,10.81
2019-02-19T13:55:32.054Z,11.02
2019-02-19T13:58:00.650Z,11.44
2019-02-19T14:00:30.018Z,11.80
2019-02-19T14:02:58.598Z,12.23
2019-02-19T14:05:27.630Z,12.20
2019-02-19T14:07:56.606Z,11.58
2019-02-19T14:10:25.444Z,10.79
2019-02-19T14:12:54.001Z,10.63
2019-02-19T14:15:57.373Z,10.49
2019-02-19T14:18:45.107Z,10.39
2019-02-19T14:21:34.927Z,10.25
2019-02-19T14:24:22.522Z,10.13
2019-02-19T14:27:22.217Z,10.21
2019-02-19T14:30:19.085Z,10.18
2019-02-19T14:33:05.895Z,10.26
2019-02-19T14:35:59.829Z,10.27
2019-02-19T14:38:46.372Z,10.23
2019-02-19T14:41:32.868Z,10.19
2019-02-19T14:44:15.325Z,10.15
2019-02-19T14:47:09.236Z,10.14
2019-02-19T14:49:52.309Z,10.20
2019-02-19T14:52:36.797Z,10.20
2019-02-19T14:55:24.451Z,10.21
2019-02-19T14:58:12.758Z,10.12
2019-02-19T15:00:59.726Z,10.08
2019-02-19T15:04:05.665Z,10.08
2019-02-19T15:06:56.089Z,10.21
2019-02-19T15:09:42.597Z,10.23
2019-02-19T15:12:29.228Z,10.11
2019-02-19T15:15:13.508Z,9.99
2019-02-19T15:17:52.990Z,9.98
2019-02-19T15:20:34.476Z,9.98
2019-02-19T15:23:33.157Z,10.01
2019-02-19T15:26:08.837Z,9.94
2019-02-19T15:29:15.160Z,9.91
2019-02-19T15:31:51.477Z,9.89
2019-02-19T15:34:33.431Z,9.82
2019-02-19T15:37:21.745Z,9.83
2019-02-19T15:40:12.851Z,9.85
2019-02-19T15:43:05.193Z,9.78
2019-02-19T15:45:53.190Z,9.76
2019-02-19T15:48:50.065Z,9.73
2019-02-19T15:51:32.906Z,9.73
2019-02-19T15:54:29.816Z,9.68
2019-02-19T15:57:04.192Z,9.63
2019-02-19T15:59:51.248Z,9.61
2019-02-19T16:02:46.035Z,9.56
2019-02-19T16:05:32.379Z,9.60
2019-02-19T16:08:26.128Z,9.60
2019-02-19T16:11:19.657Z,9.63
2019-02-19T16:13:56.310Z,9.60
2019-02-19T16:16:38.336Z,9.56
2019-02-19T16:19:37.828Z,9.54
2019-02-19T16:22:21.885Z,9.50
2019-02-19T16:25:02.118Z,9.51
2019-02-19T16:27:52.797Z,9.44
2019-02-19T16:30:33.499Z,9.46
2019-02-19T16:33:22.171Z,9.50
2019-02-19T16:35:57.888Z,9.52
2019-02-19T16:38:40.513Z,9.50
2019-02-19T16:41:21.799Z,9.34
2019-02-19T16:44:08.416Z,9.43
2019-02-19T16:46:44.256Z,9.44
2019-02-19T16:49:32.163Z,9.37
2019-02-19T16:52:08.252Z,9.38
2019-02-19T16:54:44.919Z,9.39
2019-02-19T16:57:31.771Z,9.41
2019-02-19T17:00:14.651Z,9.37
2019-02-19T17:02:57.303Z,9.32
2019-02-19T17:05:42.551Z,9.37
2019-02-19T17:08:18.844Z,9.34
2019-02-19T17:10:57.627Z,9.32
2019-02-19T17:13:44.185Z,9.27
2019-02-19T17:16:34.224Z,9.20
2019-02-19T17:19:09.619Z,9.20
2019-02-19T17:22:06.328Z,9.16
2019-02-19T17:24:54.313Z,9.15
2019-02-19T17:27:35.332Z,9.22
2019-02-19T17:30:14.595Z,9.24
2019-02-19T17:32:50.655Z,9.17
2019-02-19T17:35:43.984Z,9.26
2019-02-19T17:38:30.287Z,9.32
2019-02-19T17:41:14.283Z,9.25
2019-02-19T17:43:52.416Z,9.23
2019-02-19T17:46:51.978Z,9.28
2019-02-19T17:49:45.318Z,9.24
2019-02-19T17:52:31.457Z,9.27
2019-02-19T17:55:37.529Z,9.30
2019-02-19T17:58:14.791Z,9.25
2019-02-19T18:00:53.199Z,9.25
2019-02-19T18:03:36.437Z,9.23
2019-02-19T18:06:12.393Z,9.19
2019-02-19T18:09:09.320Z,9.23
2019-02-19T18:11:56.369Z,9.18
2019-02-19T18:14:35.261Z,9.19
2019-02-19T18:17:34.804Z,9.20
2019-02-19T18:20:03.367Z,9.21
2019-02-19T18:22:32.220Z,9.15
2019-02-19T18:25:00.845Z,9.22
2019-02-19T18:27:29.401Z,9.23
2019-02-19T18:29:57.967Z,9.21
2019-02-19T18:32:26.560Z,9.20
2019-02-19T18:34:55.115Z,9.22
2019-02-19T18:37:23.656Z,9.21
2019-02-19T18:39:52.233Z,9.18
2019-02-19T18:42:21.179Z,9.13
2019-02-19T18:44:49.756Z,9.16
2019-02-19T18:47:18.303Z,9.11
2019-02-19T18:49:46.928Z,9.10
2019-02-19T18:52:15.471Z,9.08
2019-02-19T18:54:44.027Z,9.07
2019-02-19T18:57:12.952Z,9.01
2019-02-19T18:59:43.019Z,9.05
2019-02-19T19:02:11.563Z,9.02
2019-02-19T19:04:40.119Z,8.96
2019-02-19T19:07:08.706Z,8.99
2019-02-19T19:09:37.270Z,8.93
2019-02-19T19:12:05.863Z,8.96
2019-02-19T19:14:34.421Z,9.02
2019-02-19T19:17:03.000Z,8.98
2019-02-19T19:19:31.591Z,8.97
2019-02-19T19:22:00.161Z,8.98
2019-02-19T19:24:28.821Z,9.00
2019-02-19T19:26:57.372Z,9.00
2019-02-19T19:29:25.922Z,9.07
2019-02-19T19:31:54.533Z,9.01
2019-02-19T19:34:23.084Z,8.92
2019-02-19T19:36:51.638Z,8.91
2019-02-19T19:39:20.213Z,8.88
2019-02-19T19:41:48.790Z,8.86
2019-02-19T19:44:17.367Z,8.82
2019-02-19T19:46:45.963Z,8.75
2019-02-19T19:49:14.520Z,8.63
2019-02-19T19:51:43.072Z,8.58
2019-02-19T19:54:11.659Z,8.59
2019-02-19T19:56:40.215Z,8.59
2019-02-19T19:59:08.805Z,8.54
2019-02-19T20:01:37.360Z,8.48
2019-02-19T20:04:05.912Z,8.34
2019-02-19T20:06:34.490Z,8.34
2019-02-19T20:09:04.629Z,8.19
2019-02-19T20:11:33.180Z,8.01
2019-02-19T20:14:01.829Z,8.11
2019-02-19T20:16:30.441Z,8.10
2019-02-19T20:18:58.995Z,7.99
2019-02-19T20:21:27.567Z,8.13
2019-02-19T20:23:56.145Z,8.04
2019-02-19T20:26:24.695Z,8.12
2019-02-19T20:28:53.297Z,8.11
2019-02-19T20:31:21.865Z,8.19
2019-02-19T20:33:50.404Z,8.26
2019-02-19T20:36:18.982Z,8.32
2019-02-19T20:38:47.536Z,8.34
2019-02-19T20:41:16.155Z,8.36
2019-02-19T20:43:44.753Z,8.27
2019-02-19T20:46:13.383Z,8.32
2019-02-19T20:48:42.071Z,8.35
2019-02-19T20:51:10.627Z,8.34
2019-02-19T20:53:39.203Z,8.20
2019-02-19T20:56:07.724Z,8.14
2019-02-19T20:58:36.291Z,7.97
2019-02-19T21:01:04.844Z,7.97
2019-02-19T21:03:35.802Z,7.89
2019-02-19T21:06:04.363Z,7.91
2019-02-19T21:08:32.947Z,7.83
2019-02-19T21:11:01.528Z,7.61
2019-02-19T21:13:30.116Z,7.53
2019-02-19T21:15:58.674Z,7.46
2019-02-19T21:18:28.227Z,7.41
2019-02-19T21:20:56.802Z,7.21
2019-02-19T21:23:25.353Z,7.24
2019-02-19T21:25:53.966Z,7.18
2019-02-19T21:28:22.535Z,6.81
2019-02-19T21:30:51.086Z,6.59
2019-02-19T21:33:19.662Z,6.78
2019-02-19T21:35:48.236Z,6.76
2019-02-19T21:38:16.843Z,6.69
2019-02-19T21:40:45.409Z,6.68
2019-02-19T21:43:13.993Z,6.58
2019-02-19T21:45:42.606Z,6.31
2019-02-19T21:48:11.176Z,6.59
2019-02-19T21:50:39.728Z,6.76
2019-02-19T21:53:08.335Z,6.38
2019-02-19T21:55:36.898Z,6.05
2019-02-19T21:58:06.576Z,6.16
2019-02-19T22:00:35.363Z,5.97
2019-02-19T22:03:03.928Z,5.87
2019-02-19T22:05:32.495Z,6.17
2019-02-19T22:08:01.091Z,6.10
2019-02-19T22:10:29.678Z,6.26
2019-02-19T22:12:58.486Z,6.46
2019-02-19T22:15:27.371Z,6.36
2019-02-19T22:17:56.915Z,6.21
2019-02-19T22:20:38.844Z,6.16
2019-02-19T22:23:08.125Z,5.93
2019-02-19T22:25:37.067Z,5.67
2019-02-19T22:28:06.020Z,5.69
2019-02-19T22:30:34.981Z,5.97
2019-02-19T22:33:04.975Z,6.05
2019-02-19T22:35:33.767Z,5.96
2019-02-19T22:38:02.601Z,5.98
2019-02-19T22:40:31.405Z,6.02
2019-02-19T22:43:00.171Z,6.00
2019-02-19T22:45:28.999Z,6.03
2019-02-19T22:47:57.787Z,5.98
2019-02-19T22:50:26.553Z,5.99
2019-02-19T22:52:56.111Z,5.94
2019-02-19T22:55:32.803Z,5.93
2019-02-19T22:58:01.596Z,5.91
2019-02-19T23:00:52.106Z,5.92
2019-02-19T23:03:24.767Z,5.78
2019-02-19T23:05:53.623Z,5.64
2019-02-19T23:08:23.356Z,5.81
2019-02-19T23:10:52.137Z,5.59
2019-02-19T23:13:20.948Z,5.37
2019-02-19T23:15:49.780Z,5.16
2019-02-19T23:18:18.813Z,5.34
2019-02-19T23:20:47.625Z,5.16
2019-02-19T23:23:16.411Z,5.12
2019-02-19T23:25:45.251Z,5.13
2019-02-19T23:28:14.045Z,5.05
2019-02-19T23:30:42.801Z,4.99
2019-02-19T23:33:11.647Z,5.01
2019-02-19T23:35:45.083Z,5.02
2019-02-19T23:38:13.867Z,4.95
2019-02-19T23:40:42.659Z,5.23
2019-02-19T23:43:11.418Z,5.23
2019-02-19T23:45:40.289Z,5.19
2019-02-19T23:48:09.252Z,5.30
2019-02-19T23:50:38.010Z,5.13
2019-02-19T23:53:06.806Z,5.02
2019-02-19T23:55:35.641Z,5.05
2019-02-19T23:58:04.498Z,4.91
